Aviation Digital Data Service (ADDS)

Output produced by METARs form (0429 UTC 26 May 2018)
found at http://www.aviationweather.gov/adds/metars/
 
EEEI 260350Z 11003KT 060V160 CAVOK 13/06 Q1029 NOSIG
TAF EEEI 252330Z 2600/2624 13004KT CAVOK 
     BECMG 2611/2613 36005KT
       
EEKA 260350Z 14003KT CAVOK 13/10 Q1029
EEKE 260350Z AUTO 10004KT 9999NDV NCD 16/11 Q1028
EETN 260420Z 16004KT CAVOK 15/08 Q1030 NOSIG
TAF EETN 252300Z 2600/2624 15004KT CAVOK 
     TEMPO 2610/2618 01010KT
       
EETU 260350Z AUTO VRB03KT 9999 NCD 13/08 Q1030